sensor_id;sensor_type;location;lat;lon;timestamp;temperature;humidity
34646;DHT22;20857;47.808;12.482;2023-07-24T00:01:03;19.20;99.90
34646;DHT22;20857;47.808;12.482;2023-07-24T00:03:28;19.10;99.90
34646;DHT22;20857;47.808;12.482;2023-07-24T00:05:58;19.00;99.90
34646;DHT22;20857;47.808;12.482;2023-07-24T00:08:24;19.00;99.90
34646;DHT22;20857;47.808;12.482;2023-07-24T00:10:50;19.00;99.90
34646;DHT22;20857;47.808;12.482;2023-07-24T00:13:15;19.00;99.90
34646;DHT22;20857;47.808;12.482;2023-07-24T00:15:41;19.00;99.90
34646;DHT22;20857;47.808;12.482;2023-07-24T00:18:07;19.00;99.90
34646;DHT22;20857;47.808;12.482;2023-07-24T00:20:32;19.00;99.90
34646;DHT22;20857;47.808;12.482;2023-07-24T00:22:58;19.00;99.90
34646;DHT22;20857;47.808;12.482;2023-07-24T00:25:23;18.90;99.90
34646;DHT22;20857;47.808;12.482;2023-07-24T00:27:49;18.80;99.90
34646;DHT22;20857;47.808;12.482;2023-07-24T00:30:15;18.70;99.90
34646;DHT22;20857;47.808;12.482;2023-07-24T00:32:41;18.60;99.90
34646;DHT22;20857;47.808;12.482;2023-07-24T00:35:07;18.60;99.90
34646;DHT22;20857;47.808;12.482;2023-07-24T00:37:33;18.60;99.90
34646;DHT22;20857;47.808;12.482;2023-07-24T00:39:59;18.50;99.90
34646;DHT22;20857;47.808;12.482;2023-07-24T00:42:24;18.50;99.90
34646;DHT22;20857;47.808;12.482;2023-07-24T00:44:50;18.50;99.90
34646;DHT22;20857;47.808;12.482;2023-07-24T00:47:16;18.50;99.90
34646;DHT22;20857;47.808;12.482;2023-07-24T00:49:42;18.50;99.90
34646;DHT22;20857;47.808;12.482;2023-07-24T00:52:07;18.60;99.90
34646;DHT22;20857;47.808;12.482;2023-07-24T00:54:34;18.60;99.90
34646;DHT22;20857;47.808;12.482;2023-07-24T00:57:00;18.60;99.90
34646;DHT22;20857;47.808;12.482;2023-07-24T00:59:26;18.60;99.90
34646;DHT22;20857;47.808;12.482;2023-07-24T01:01:52;18.70;99.90
34646;DHT22;20857;47.808;12.482;2023-07-24T01:04:18;18.70;99.90
34646;DHT22;20857;47.808;12.482;2023-07-24T01:06:44;18.80;99.90
34646;DHT22;20857;47.808;12.482;2023-07-24T01:09:10;18.80;99.90
34646;DHT22;20857;47.808;12.482;2023-07-24T01:11:41;18.80;99.90
34646;DHT22;20857;47.808;12.482;2023-07-24T01:14:44;18.60;99.90
34646;DHT22;20857;47.808;12.482;2023-07-24T01:17:14;18.60;99.90
34646;DHT22;20857;47.808;12.482;2023-07-24T01:19:50;18.60;99.90
34646;DHT22;20857;47.808;12.482;2023-07-24T01:25:22;18.40;99.90
34646;DHT22;20857;47.808;12.482;2023-07-24T01:27:50;18.30;99.90
34646;DHT22;20857;47.808;12.482;2023-07-24T01:30:20;18.40;99.90
34646;DHT22;20857;47.808;12.482;2023-07-24T01:32:45;18.30;99.90
34646;DHT22;20857;47.808;12.482;2023-07-24T01:35:11;18.40;99.90
34646;DHT22;20857;47.808;12.482;2023-07-24T01:37:37;18.40;99.90
34646;DHT22;20857;47.808;12.482;2023-07-24T01:40:06;18.40;99.90
34646;DHT22;20857;47.808;12.482;2023-07-24T01:42:34;18.40;99.90
34646;DHT22;20857;47.808;12.482;2023-07-24T01:45:00;18.50;99.90
34646;DHT22;20857;47.808;12.482;2023-07-24T01:47:25;18.40;99.90
34646;DHT22;20857;47.808;12.482;2023-07-24T01:49:51;18.40;99.90
34646;DHT22;20857;47.808;12.482;2023-07-24T01:52:17;18.70;99.90
34646;DHT22;20857;47.808;12.482;2023-07-24T01:54:43;19.00;99.90
34646;DHT22;20857;47.808;12.482;2023-07-24T01:57:08;19.30;99.90
34646;DHT22;20857;47.808;12.482;2023-07-24T01:59:34;19.60;99.90
34646;DHT22;20857;47.808;12.482;2023-07-24T02:01:59;20.00;99.90
34646;DHT22;20857;47.808;12.482;2023-07-24T02:04:25;20.10;99.90
34646;DHT22;20857;47.808;12.482;2023-07-24T02:06:51;20.20;99.90
34646;DHT22;20857;47.808;12.482;2023-07-24T02:09:19;20.20;99.90
34646;DHT22;20857;47.808;12.482;2023-07-24T02:11:45;20.30;99.90
34646;DHT22;20857;47.808;12.482;2023-07-24T02:14:13;20.30;99.90
34646;DHT22;20857;47.808;12.482;2023-07-24T02:16:39;20.30;99.90
34646;DHT22;20857;47.808;12.482;2023-07-24T02:19:05;20.30;99.90
34646;DHT22;20857;47.808;12.482;2023-07-24T02:21:31;20.30;99.90
34646;DHT22;20857;47.808;12.482;2023-07-24T02:23:57;20.30;99.90
34646;DHT22;20857;47.808;12.482;2023-07-24T02:26:22;20.30;99.90
34646;DHT22;20857;47.808;12.482;2023-07-24T02:28:48;20.30;99.90
34646;DHT22;20857;47.808;12.482;2023-07-24T02:31:14;20.40;99.90
34646;DHT22;20857;47.808;12.482;2023-07-24T02:33:39;20.40;99.90
34646;DHT22;20857;47.808;12.482;2023-07-24T02:36:05;20.40;99.90
34646;DHT22;20857;47.808;12.482;2023-07-24T02:38:30;20.40;99.90
34646;DHT22;20857;47.808;12.482;2023-07-24T02:40:56;20.40;99.90
34646;DHT22;20857;47.808;12.482;2023-07-24T02:43:22;20.40;99.90
34646;DHT22;20857;47.808;12.482;2023-07-24T02:45:48;20.40;99.90
34646;DHT22;20857;47.808;12.482;2023-07-24T02:48:13;20.30;99.90
34646;DHT22;20857;47.808;12.482;2023-07-24T02:50:39;20.30;99.90
34646;DHT22;20857;47.808;12.482;2023-07-24T02:53:04;20.20;99.90
34646;DHT22;20857;47.808;12.482;2023-07-24T02:55:30;20.20;99.90
34646;DHT22;20857;47.808;12.482;2023-07-24T02:57:56;20.30;99.90
34646;DHT22;20857;47.808;12.482;2023-07-24T03:00:22;20.30;99.90
34646;DHT22;20857;47.808;12.482;2023-07-24T03:02:47;20.30;99.90
34646;DHT22;20857;47.808;12.482;2023-07-24T03:05:13;20.30;99.90
34646;DHT22;20857;47.808;12.482;2023-07-24T03:07:39;20.20;99.90
34646;DHT22;20857;47.808;12.482;2023-07-24T03:10:04;20.10;99.90
34646;DHT22;20857;47.808;12.482;2023-07-24T03:12:30;20.20;99.90
34646;DHT22;20857;47.808;12.482;2023-07-24T03:14:56;20.30;99.90
34646;DHT22;20857;47.808;12.482;2023-07-24T03:17:22;20.30;99.90
34646;DHT22;20857;47.808;12.482;2023-07-24T03:19:48;20.20;99.90
34646;DHT22;20857;47.808;12.482;2023-07-24T03:22:14;20.20;99.90
34646;DHT22;20857;47.808;12.482;2023-07-24T03:24:39;20.00;99.90
34646;DHT22;20857;47.808;12.482;2023-07-24T03:27:05;19.80;99.90
34646;DHT22;20857;47.808;12.482;2023-07-24T03:29:31;19.80;99.90
34646;DHT22;20857;47.808;12.482;2023-07-24T03:31:56;19.80;99.90
34646;DHT22;20857;47.808;12.482;2023-07-24T03:34:22;19.70;99.90
34646;DHT22;20857;47.808;12.482;2023-07-24T03:36:47;19.70;99.90
34646;DHT22;20857;47.808;12.482;2023-07-24T03:39:13;19.70;99.90
34646;DHT22;20857;47.808;12.482;2023-07-24T03:41:40;19.60;99.90
34646;DHT22;20857;47.808;12.482;2023-07-24T03:44:06;19.60;99.90
34646;DHT22;20857;47.808;12.482;2023-07-24T03:46:32;19.70;99.90
34646;DHT22;20857;47.808;12.482;2023-07-24T03:48:58;19.70;99.90
34646;DHT22;20857;47.808;12.482;2023-07-24T03:51:23;19.80;99.90
34646;DHT22;20857;47.808;12.482;2023-07-24T03:53:49;19.80;99.90
34646;DHT22;20857;47.808;12.482;2023-07-24T03:56:15;19.80;99.90
34646;DHT22;20857;47.808;12.482;2023-07-24T03:58:40;19.70;99.90
34646;DHT22;20857;47.808;12.482;2023-07-24T04:01:07;19.80;99.90
34646;DHT22;20857;47.808;12.482;2023-07-24T04:03:33;19.80;99.90
34646;DHT22;20857;47.808;12.482;2023-07-24T04:05:59;20.20;99.90
34646;DHT22;20857;47.808;12.482;2023-07-24T04:08:24;20.30;99.90
34646;DHT22;20857;47.808;12.482;2023-07-24T04:10:50;20.40;99.90
34646;DHT22;20857;47.808;12.482;2023-07-24T04:13:16;20.60;99.90
34646;DHT22;20857;47.808;12.482;2023-07-24T04:15:41;20.60;99.90
34646;DHT22;20857;47.808;12.482;2023-07-24T04:18:07;20.50;99.90
34646;DHT22;20857;47.808;12.482;2023-07-24T04:20:33;20.40;99.90
34646;DHT22;20857;47.808;12.482;2023-07-24T04:22:59;20.20;99.90
34646;DHT22;20857;47.808;12.482;2023-07-24T04:25:24;20.10;99.90
34646;DHT22;20857;47.808;12.482;2023-07-24T04:27:50;20.10;99.90
34646;DHT22;20857;47.808;12.482;2023-07-24T04:30:16;20.10;99.90
34646;DHT22;20857;47.808;12.482;2023-07-24T04:32:42;19.90;99.90
34646;DHT22;20857;47.808;12.482;2023-07-24T04:35:07;19.90;99.90
34646;DHT22;20857;47.808;12.482;2023-07-24T04:37:33;20.00;99.90
34646;DHT22;20857;47.808;12.482;2023-07-24T04:39:59;19.90;99.90
34646;DHT22;20857;47.808;12.482;2023-07-24T04:42:24;20.00;99.90
34646;DHT22;20857;47.808;12.482;2023-07-24T04:44:50;20.10;99.90
34646;DHT22;20857;47.808;12.482;2023-07-24T04:47:17;20.10;99.90
34646;DHT22;20857;47.808;12.482;2023-07-24T04:49:42;20.20;99.90
34646;DHT22;20857;47.808;12.482;2023-07-24T04:52:08;20.20;99.90
34646;DHT22;20857;47.808;12.482;2023-07-24T04:54:33;20.10;99.90
34646;DHT22;20857;47.808;12.482;2023-07-24T04:56:59;20.10;99.90
34646;DHT22;20857;47.808;12.482;2023-07-24T04:59:24;19.90;99.90
34646;DHT22;20857;47.808;12.482;2023-07-24T05:01:50;19.80;99.90
34646;DHT22;20857;47.808;12.482;2023-07-24T05:04:17;19.60;99.90
34646;DHT22;20857;47.808;12.482;2023-07-24T05:06:42;19.50;99.90
34646;DHT22;20857;47.808;12.482;2023-07-24T05:09:08;19.30;99.90
34646;DHT22;20857;47.808;12.482;2023-07-24T05:11:33;19.30;99.90
34646;DHT22;20857;47.808;12.482;2023-07-24T05:13:59;19.30;99.90
34646;DHT22;20857;47.808;12.482;2023-07-24T05:16:24;19.30;99.90
34646;DHT22;20857;47.808;12.482;2023-07-24T05:18:50;19.40;99.90
34646;DHT22;20857;47.808;12.482;2023-07-24T05:21:16;19.50;99.90
34646;DHT22;20857;47.808;12.482;2023-07-24T05:23:41;19.60;99.90
34646;DHT22;20857;47.808;12.482;2023-07-24T05:26:07;19.70;99.90
34646;DHT22;20857;47.808;12.482;2023-07-24T05:28:33;19.80;99.90
34646;DHT22;20857;47.808;12.482;2023-07-24T05:31:05;19.90;99.90
34646;DHT22;20857;47.808;12.482;2023-07-24T05:33:32;20.00;99.90
34646;DHT22;20857;47.808;12.482;2023-07-24T05:36:01;20.10;99.90
34646;DHT22;20857;47.808;12.482;2023-07-24T05:38:27;20.20;99.90
34646;DHT22;20857;47.808;12.482;2023-07-24T05:41:01;20.30;99.90
34646;DHT22;20857;47.808;12.482;2023-07-24T05:43:28;20.40;99.90
34646;DHT22;20857;47.808;12.482;2023-07-24T05:45:55;20.60;99.90
34646;DHT22;20857;47.808;12.482;2023-07-24T05:48:21;20.60;99.90
34646;DHT22;20857;47.808;12.482;2023-07-24T05:50:47;20.70;99.90
34646;DHT22;20857;47.808;12.482;2023-07-24T05:53:14;20.90;99.90
34646;DHT22;20857;47.808;12.482;2023-07-24T05:55:39;21.10;99.90
34646;DHT22;20857;47.808;12.482;2023-07-24T05:58:05;21.30;99.90
34646;DHT22;20857;47.808;12.482;2023-07-24T06:00:31;21.30;99.90
34646;DHT22;20857;47.808;12.482;2023-07-24T06:02:56;21.30;99.90
34646;DHT22;20857;47.808;12.482;2023-07-24T06:05:22;21.30;99.90
34646;DHT22;20857;47.808;12.482;2023-07-24T06:07:47;21.30;99.90
34646;DHT22;20857;47.808;12.482;2023-07-24T06:10:13;21.30;99.90
34646;DHT22;20857;47.808;12.482;2023-07-24T06:12:39;21.50;99.90
34646;DHT22;20857;47.808;12.482;2023-07-24T06:15:05;21.50;99.90
34646;DHT22;20857;47.808;12.482;2023-07-24T06:17:31;21.60;99.90
34646;DHT22;20857;47.808;12.482;2023-07-24T06:19:57;21.70;99.90
34646;DHT22;20857;47.808;12.482;2023-07-24T06:22:22;21.90;99.90
34646;DHT22;20857;47.808;12.482;2023-07-24T06:24:48;22.10;99.90
34646;DHT22;20857;47.808;12.482;2023-07-24T06:27:14;22.10;99.90
34646;DHT22;20857;47.808;12.482;2023-07-24T06:29:40;22.10;99.90
34646;DHT22;20857;47.808;12.482;2023-07-24T06:32:06;22.10;99.90
34646;DHT22;20857;47.808;12.482;2023-07-24T06:34:31;22.20;99.90
34646;DHT22;20857;47.808;12.482;2023-07-24T06:36:57;22.10;99.90
34646;DHT22;20857;47.808;12.482;2023-07-24T06:39:22;22.20;99.90
34646;DHT22;20857;47.808;12.482;2023-07-24T06:41:48;22.30;99.90
34646;DHT22;20857;47.808;12.482;2023-07-24T06:44:14;22.50;99.90
34646;DHT22;20857;47.808;12.482;2023-07-24T06:46:39;22.60;99.90
34646;DHT22;20857;47.808;12.482;2023-07-24T06:49:05;22.70;99.90
34646;DHT22;20857;47.808;12.482;2023-07-24T06:51:30;22.80;99.90
34646;DHT22;20857;47.808;12.482;2023-07-24T06:53:56;23.00;99.90
34646;DHT22;20857;47.808;12.482;2023-07-24T06:56:22;23.00;99.90
34646;DHT22;20857;47.808;12.482;2023-07-24T06:58:47;23.00;99.90
34646;DHT22;20857;47.808;12.482;2023-07-24T07:01:13;23.00;99.90
34646;DHT22;20857;47.808;12.482;2023-07-24T07:03:38;23.00;99.90
34646;DHT22;20857;47.808;12.482;2023-07-24T07:06:06;23.10;99.90
34646;DHT22;20857;47.808;12.482;2023-07-24T07:08:34;23.10;99.90
34646;DHT22;20857;47.808;12.482;2023-07-24T07:11:00;23.20;99.90
34646;DHT22;20857;47.808;12.482;2023-07-24T07:13:27;23.30;99.90
34646;DHT22;20857;47.808;12.482;2023-07-24T07:15:52;23.40;99.90
34646;DHT22;20857;47.808;12.482;2023-07-24T07:18:18;23.50;99.90
34646;DHT22;20857;47.808;12.482;2023-07-24T07:20:47;23.70;99.90
34646;DHT22;20857;47.808;12.482;2023-07-24T07:23:14;24.10;99.90
34646;DHT22;20857;47.808;12.482;2023-07-24T07:25:40;24.30;99.90
34646;DHT22;20857;47.808;12.482;2023-07-24T07:28:06;24.50;99.90
34646;DHT22;20857;47.808;12.482;2023-07-24T07:30:31;24.80;99.90
34646;DHT22;20857;47.808;12.482;2023-07-24T07:32:57;24.90;99.90
34646;DHT22;20857;47.808;12.482;2023-07-24T07:35:23;25.00;99.90
34646;DHT22;20857;47.808;12.482;2023-07-24T07:37:48;25.10;99.90
34646;DHT22;20857;47.808;12.482;2023-07-24T07:40:14;25.10;99.90
34646;DHT22;20857;47.808;12.482;2023-07-24T07:42:39;25.10;99.90
34646;DHT22;20857;47.808;12.482;2023-07-24T07:45:05;25.30;99.90
34646;DHT22;20857;47.808;12.482;2023-07-24T07:47:31;25.60;99.90
34646;DHT22;20857;47.808;12.482;2023-07-24T07:49:57;26.00;99.90
34646;DHT22;20857;47.808;12.482;2023-07-24T07:52:22;26.20;99.90
34646;DHT22;20857;47.808;12.482;2023-07-24T07:54:48;26.30;99.90
34646;DHT22;20857;47.808;12.482;2023-07-24T07:57:15;26.30;99.90
34646;DHT22;20857;47.808;12.482;2023-07-24T07:59:41;26.30;99.90
34646;DHT22;20857;47.808;12.482;2023-07-24T08:02:07;26.20;99.90
34646;DHT22;20857;47.808;12.482;2023-07-24T08:04:33;26.20;99.90
34646;DHT22;20857;47.808;12.482;2023-07-24T08:06:59;26.10;99.90
34646;DHT22;20857;47.808;12.482;2023-07-24T08:09:24;26.10;99.90
34646;DHT22;20857;47.808;12.482;2023-07-24T08:11:50;26.10;99.90
34646;DHT22;20857;47.808;12.482;2023-07-24T08:14:20;26.10;99.90
34646;DHT22;20857;47.808;12.482;2023-07-24T08:16:48;26.00;99.90
34646;DHT22;20857;47.808;12.482;2023-07-24T08:19:14;25.80;99.90
34646;DHT22;20857;47.808;12.482;2023-07-24T08:21:40;25.80;99.90
34646;DHT22;20857;47.808;12.482;2023-07-24T08:24:06;25.70;99.90
34646;DHT22;20857;47.808;12.482;2023-07-24T08:26:32;25.60;99.90
34646;DHT22;20857;47.808;12.482;2023-07-24T08:28:57;25.60;99.90
34646;DHT22;20857;47.808;12.482;2023-07-24T08:31:23;25.70;99.90
34646;DHT22;20857;47.808;12.482;2023-07-24T08:33:48;25.60;99.90
34646;DHT22;20857;47.808;12.482;2023-07-24T08:36:14;25.20;99.90
34646;DHT22;20857;47.808;12.482;2023-07-24T08:38:40;25.00;99.90
34646;DHT22;20857;47.808;12.482;2023-07-24T08:41:07;24.80;99.90
34646;DHT22;20857;47.808;12.482;2023-07-24T08:43:34;24.30;99.90
34646;DHT22;20857;47.808;12.482;2023-07-24T08:46:00;24.20;99.90
34646;DHT22;20857;47.808;12.482;2023-07-24T08:48:38;24.10;99.90
34646;DHT22;20857;47.808;12.482;2023-07-24T08:51:08;24.30;99.90
34646;DHT22;20857;47.808;12.482;2023-07-24T08:53:36;24.40;99.90
34646;DHT22;20857;47.808;12.482;2023-07-24T08:56:03;24.50;99.90
34646;DHT22;20857;47.808;12.482;2023-07-24T08:58:29;24.40;99.90
34646;DHT22;20857;47.808;12.482;2023-07-24T09:01:00;24.20;99.90
34646;DHT22;20857;47.808;12.482;2023-07-24T09:03:26;24.10;99.90
34646;DHT22;20857;47.808;12.482;2023-07-24T09:05:52;24.20;99.90
34646;DHT22;20857;47.808;12.482;2023-07-24T09:10:56;24.00;99.90
34646;DHT22;20857;47.808;12.482;2023-07-24T09:13:22;23.90;99.90
34646;DHT22;20857;47.808;12.482;2023-07-24T09:15:48;23.90;99.90
34646;DHT22;20857;47.808;12.482;2023-07-24T09:18:13;23.90;99.90
34646;DHT22;20857;47.808;12.482;2023-07-24T09:20:41;24.10;99.90
34646;DHT22;20857;47.808;12.482;2023-07-24T09:23:08;24.00;99.90
34646;DHT22;20857;47.808;12.482;2023-07-24T09:25:35;24.00;99.90
34646;DHT22;20857;47.808;12.482;2023-07-24T09:28:01;24.20;99.90
34646;DHT22;20857;47.808;12.482;2023-07-24T09:30:34;24.60;99.90
34646;DHT22;20857;47.808;12.482;2023-07-24T09:32:59;25.00;99.90
34646;DHT22;20857;47.808;12.482;2023-07-24T09:35:25;25.40;99.90
34646;DHT22;20857;47.808;12.482;2023-07-24T09:38:05;25.60;99.90
34646;DHT22;20857;47.808;12.482;2023-07-24T09:40:39;26.00;99.90
34646;DHT22;20857;47.808;12.482;2023-07-24T09:43:26;26.00;99.90
34646;DHT22;20857;47.808;12.482;2023-07-24T09:45:53;25.70;99.90
34646;DHT22;20857;47.808;12.482;2023-07-24T09:48:20;25.50;99.90
34646;DHT22;20857;47.808;12.482;2023-07-24T09:50:48;25.50;99.90
34646;DHT22;20857;47.808;12.482;2023-07-24T09:53:21;25.20;99.90
34646;DHT22;20857;47.808;12.482;2023-07-24T09:56:01;25.10;99.90
34646;DHT22;20857;47.808;12.482;2023-07-24T09:58:27;25.20;99.90
34646;DHT22;20857;47.808;12.482;2023-07-24T10:00:53;25.60;99.90
34646;DHT22;20857;47.808;12.482;2023-07-24T10:03:21;26.10;99.90
34646;DHT22;20857;47.808;12.482;2023-07-24T10:05:47;26.20;99.90
34646;DHT22;20857;47.808;12.482;2023-07-24T10:08:17;26.30;99.90
34646;DHT22;20857;47.808;12.482;2023-07-24T10:10:43;26.70;99.90
34646;DHT22;20857;47.808;12.482;2023-07-24T10:13:10;27.10;99.90
34646;DHT22;20857;47.808;12.482;2023-07-24T10:15:38;27.30;99.90
34646;DHT22;20857;47.808;12.482;2023-07-24T10:18:07;27.50;99.90
34646;DHT22;20857;47.808;12.482;2023-07-24T10:20:36;27.70;99.90
34646;DHT22;20857;47.808;12.482;2023-07-24T10:23:04;27.40;99.90
34646;DHT22;20857;47.808;12.482;2023-07-24T10:25:34;26.90;99.90
34646;DHT22;20857;47.808;12.482;2023-07-24T10:28:08;26.90;99.90
34646;DHT22;20857;47.808;12.482;2023-07-24T10:30:36;26.80;99.90
34646;DHT22;20857;47.808;12.482;2023-07-24T10:33:18;26.90;99.90
34646;DHT22;20857;47.808;12.482;2023-07-24T10:35:52;27.20;99.90
34646;DHT22;20857;47.808;12.482;2023-07-24T10:38:18;27.60;99.90
34646;DHT22;20857;47.808;12.482;2023-07-24T10:40:46;27.80;99.90
34646;DHT22;20857;47.808;12.482;2023-07-24T10:43:17;27.80;99.90
34646;DHT22;20857;47.808;12.482;2023-07-24T10:45:49;27.70;99.90
34646;DHT22;20857;47.808;12.482;2023-07-24T10:48:17;27.80;99.90
34646;DHT22;20857;47.808;12.482;2023-07-24T10:50:44;27.90;99.90
34646;DHT22;20857;47.808;12.482;2023-07-24T10:53:12;28.00;99.90
34646;DHT22;20857;47.808;12.482;2023-07-24T10:55:38;28.00;99.90
34646;DHT22;20857;47.808;12.482;2023-07-24T10:58:05;28.00;99.90
34646;DHT22;20857;47.808;12.482;2023-07-24T11:00:30;27.90;99.90
34646;DHT22;20857;47.808;12.482;2023-07-24T11:02:56;28.00;99.90
34646;DHT22;20857;47.808;12.482;2023-07-24T11:05:22;28.10;99.90
34646;DHT22;20857;47.808;12.482;2023-07-24T11:07:48;28.30;99.90
34646;DHT22;20857;47.808;12.482;2023-07-24T11:10:21;28.20;99.90
34646;DHT22;20857;47.808;12.482;2023-07-24T11:12:48;28.00;99.90
34646;DHT22;20857;47.808;12.482;2023-07-24T11:15:14;28.00;99.90
34646;DHT22;20857;47.808;12.482;2023-07-24T11:17:41;28.20;99.90
34646;DHT22;20857;47.808;12.482;2023-07-24T11:20:08;28.50;99.90
34646;DHT22;20857;47.808;12.482;2023-07-24T11:22:33;28.70;99.90
34646;DHT22;20857;47.808;12.482;2023-07-24T11:24:59;28.60;99.90
34646;DHT22;20857;47.808;12.482;2023-07-24T11:27:26;28.40;99.90
34646;DHT22;20857;47.808;12.482;2023-07-24T11:29:52;28.30;99.90
34646;DHT22;20857;47.808;12.482;2023-07-24T11:32:21;28.10;99.90
34646;DHT22;20857;47.808;12.482;2023-07-24T11:34:48;28.10;99.90
34646;DHT22;20857;47.808;12.482;2023-07-24T11:37:15;28.00;99.90
34646;DHT22;20857;47.808;12.482;2023-07-24T11:39:41;27.90;99.90
34646;DHT22;20857;47.808;12.482;2023-07-24T11:42:07;27.90;99.90
34646;DHT22;20857;47.808;12.482;2023-07-24T11:44:32;28.00;99.90
34646;DHT22;20857;47.808;12.482;2023-07-24T11:47:05;28.00;99.90
34646;DHT22;20857;47.808;12.482;2023-07-24T11:49:32;28.20;99.90
34646;DHT22;20857;47.808;12.482;2023-07-24T11:52:06;28.50;99.90
34646;DHT22;20857;47.808;12.482;2023-07-24T11:54:35;28.40;99.50
34646;DHT22;20857;47.808;12.482;2023-07-24T11:57:01;28.30;99.70
34646;DHT22;20857;47.808;12.482;2023-07-24T11:59:26;28.20;99.90
34646;DHT22;20857;47.808;12.482;2023-07-24T12:01:52;28.20;99.70
34646;DHT22;20857;47.808;12.482;2023-07-24T12:04:19;28.10;99.90
34646;DHT22;20857;47.808;12.482;2023-07-24T12:06:45;28.20;99.90
34646;DHT22;20857;47.808;12.482;2023-07-24T12:09:11;28.20;99.70
34646;DHT22;20857;47.808;12.482;2023-07-24T12:11:41;28.30;99.20
34646;DHT22;20857;47.808;12.482;2023-07-24T12:14:07;28.70;99.60
34646;DHT22;20857;47.808;12.482;2023-07-24T12:16:34;28.60;98.60
34646;DHT22;20857;47.808;12.482;2023-07-24T12:19:00;28.50;99.50
34646;DHT22;20857;47.808;12.482;2023-07-24T12:21:25;28.70;98.80
34646;DHT22;20857;47.808;12.482;2023-07-24T12:23:51;28.50;99.80
34646;DHT22;20857;47.808;12.482;2023-07-24T12:26:17;28.60;99.90
34646;DHT22;20857;47.808;12.482;2023-07-24T12:28:42;28.50;99.60
34646;DHT22;20857;47.808;12.482;2023-07-24T12:31:08;28.40;99.50
34646;DHT22;20857;47.808;12.482;2023-07-24T12:33:33;28.60;99.00
34646;DHT22;20857;47.808;12.482;2023-07-24T12:35:59;28.90;99.60
34646;DHT22;20857;47.808;12.482;2023-07-24T12:38:25;29.50;98.80
34646;DHT22;20857;47.808;12.482;2023-07-24T12:40:50;29.60;99.20
34646;DHT22;20857;47.808;12.482;2023-07-24T12:43:16;29.50;98.30
34646;DHT22;20857;47.808;12.482;2023-07-24T12:45:41;29.20;99.60
34646;DHT22;20857;47.808;12.482;2023-07-24T12:48:07;29.10;99.90
34646;DHT22;20857;47.808;12.482;2023-07-24T12:50:33;29.00;99.80
34646;DHT22;20857;47.808;12.482;2023-07-24T12:52:59;29.40;99.90
34646;DHT22;20857;47.808;12.482;2023-07-24T12:55:24;30.20;99.30
34646;DHT22;20857;47.808;12.482;2023-07-24T12:57:50;30.90;98.60
34646;DHT22;20857;47.808;12.482;2023-07-24T13:00:15;31.80;98.50
34646;DHT22;20857;47.808;12.482;2023-07-24T13:02:41;32.20;96.90
34646;DHT22;20857;47.808;12.482;2023-07-24T13:05:07;32.80;96.50
34646;DHT22;20857;47.808;12.482;2023-07-24T13:07:32;33.50;96.30
34646;DHT22;20857;47.808;12.482;2023-07-24T13:10:01;33.70;96.20
34646;DHT22;20857;47.808;12.482;2023-07-24T14:17:46;21.90;99.90
34646;DHT22;20857;47.808;12.482;2023-07-24T14:20:12;19.20;99.90
34646;DHT22;20857;47.808;12.482;2023-07-24T14:22:38;18.80;99.90
34646;DHT22;20857;47.808;12.482;2023-07-24T14:25:03;18.80;99.90
34646;DHT22;20857;47.808;12.482;2023-07-24T14:27:31;18.50;99.90
34646;DHT22;20857;47.808;12.482;2023-07-24T14:29:57;18.50;99.90
34646;DHT22;20857;47.808;12.482;2023-07-24T14:32:22;18.50;99.90
34646;DHT22;20857;47.808;12.482;2023-07-24T14:34:53;18.60;99.90
34646;DHT22;20857;47.808;12.482;2023-07-24T14:37:19;18.70;99.90
34646;DHT22;20857;47.808;12.482;2023-07-24T14:39:45;18.90;99.90
34646;DHT22;20857;47.808;12.482;2023-07-24T14:42:11;19.10;99.90
34646;DHT22;20857;47.808;12.482;2023-07-24T14:44:36;19.30;99.90
34646;DHT22;20857;47.808;12.482;2023-07-24T14:47:02;19.50;99.90
34646;DHT22;20857;47.808;12.482;2023-07-24T14:49:28;19.80;99.90
34646;DHT22;20857;47.808;12.482;2023-07-24T14:51:53;20.10;99.90
34646;DHT22;20857;47.808;12.482;2023-07-24T14:54:19;20.40;99.90
34646;DHT22;20857;47.808;12.482;2023-07-24T14:56:45;20.70;99.90
34646;DHT22;20857;47.808;12.482;2023-07-24T14:59:10;21.00;99.90
34646;DHT22;20857;47.808;12.482;2023-07-24T15:01:36;21.40;99.90
34646;DHT22;20857;47.808;12.482;2023-07-24T15:04:01;21.80;99.90
34646;DHT22;20857;47.808;12.482;2023-07-24T15:06:27;22.20;99.90
34646;DHT22;20857;47.808;12.482;2023-07-24T15:08:52;22.40;99.90
34646;DHT22;20857;47.808;12.482;2023-07-24T15:11:24;22.50;99.90
34646;DHT22;20857;47.808;12.482;2023-07-24T15:13:51;22.40;99.90
34646;DHT22;20857;47.808;12.482;2023-07-24T15:16:17;22.50;99.90
34646;DHT22;20857;47.808;12.482;2023-07-24T15:18:42;22.50;99.90
34646;DHT22;20857;47.808;12.482;2023-07-24T15:21:09;23.10;99.90
34646;DHT22;20857;47.808;12.482;2023-07-24T15:23:35;23.60;99.90
34646;DHT22;20857;47.808;12.482;2023-07-24T15:26:00;23.70;99.90
34646;DHT22;20857;47.808;12.482;2023-07-24T15:28:26;23.90;99.90
34646;DHT22;20857;47.808;12.482;2023-07-24T15:30:52;24.40;99.90
34646;DHT22;20857;47.808;12.482;2023-07-24T15:33:18;24.90;99.90
34646;DHT22;20857;47.808;12.482;2023-07-24T15:35:43;25.90;99.90
34646;DHT22;20857;47.808;12.482;2023-07-24T15:38:09;26.20;99.90
34646;DHT22;20857;47.808;12.482;2023-07-24T15:40:35;26.80;99.90
34646;DHT22;20857;47.808;12.482;2023-07-24T15:43:02;27.50;99.90
34646;DHT22;20857;47.808;12.482;2023-07-24T15:45:28;27.90;99.90
34646;DHT22;20857;47.808;12.482;2023-07-24T15:47:54;28.10;99.90
34646;DHT22;20857;47.808;12.482;2023-07-24T15:50:19;28.40;99.90
34646;DHT22;20857;47.808;12.482;2023-07-24T15:52:45;27.90;99.90
34646;DHT22;20857;47.808;12.482;2023-07-24T15:55:11;27.50;99.90
34646;DHT22;20857;47.808;12.482;2023-07-24T15:57:36;27.00;99.90
34646;DHT22;20857;47.808;12.482;2023-07-24T16:00:02;27.10;99.90
34646;DHT22;20857;47.808;12.482;2023-07-24T16:02:30;27.70;99.90
34646;DHT22;20857;47.808;12.482;2023-07-24T16:04:56;29.20;99.90
34646;DHT22;20857;47.808;12.482;2023-07-24T16:07:21;29.90;99.90
34646;DHT22;20857;47.808;12.482;2023-07-24T16:09:47;30.50;99.90
34646;DHT22;20857;47.808;12.482;2023-07-24T16:12:13;31.30;99.90
34646;DHT22;20857;47.808;12.482;2023-07-24T16:14:39;31.30;99.90
34646;DHT22;20857;47.808;12.482;2023-07-24T16:17:04;31.30;99.50
34646;DHT22;20857;47.808;12.482;2023-07-24T16:19:30;31.50;99.90
34646;DHT22;20857;47.808;12.482;2023-07-24T16:21:56;31.50;99.90